createdAt,value
2022-09-21T00:01:07.866Z,12.14
2022-09-21T00:03:41.590Z,12.20
2022-09-21T00:06:17.215Z,12.21
2022-09-21T00:08:50.152Z,12.25
2022-09-21T00:11:25.330Z,12.23
2022-09-21T00:13:59.876Z,12.28
2022-09-21T00:16:32.632Z,12.27
2022-09-21T00:19:05.155Z,12.29
2022-09-21T00:21:39.353Z,12.34
2022-09-21T00:24:12.270Z,12.35
2022-09-21T00:26:44.506Z,12.35
2022-09-21T00:29:16.637Z,12.40
2022-09-21T00:31:49.299Z,12.35
2022-09-21T00:34:21.326Z,12.31
2022-09-21T00:36:53.597Z,12.28
2022-09-21T00:39:25.995Z,12.43
2022-09-21T00:41:57.946Z,12.39
2022-09-21T00:44:35.024Z,12.46
2022-09-21T00:47:11.791Z,12.45
2022-09-21T00:49:49.551Z,12.46
2022-09-21T00:52:23.936Z,12.52
2022-09-21T00:54:59.579Z,12.39
2022-09-21T00:57:35.685Z,12.49
2022-09-21T01:00:10.782Z,12.55
2022-09-21T01:02:43.694Z,12.59
2022-09-21T01:05:15.761Z,12.60
2022-09-21T01:07:49.746Z,12.62
2022-09-21T01:10:22.779Z,12.65
2022-09-21T01:13:07.354Z,12.68
2022-09-21T01:15:47.394Z,12.66
2022-09-21T01:18:29.430Z,12.67
2022-09-21T01:21:26.076Z,12.70
2022-09-21T01:24:27.473Z,12.73
2022-09-21T01:27:36.348Z,12.71
2022-09-21T01:30:12.299Z,12.69
2022-09-21T01:32:51.595Z,12.71
2022-09-21T01:35:29.546Z,12.69
2022-09-21T01:38:05.489Z,12.73
2022-09-21T01:40:41.595Z,12.77
2022-09-21T01:43:19.792Z,12.74
2022-09-21T01:45:55.002Z,12.79
2022-09-21T01:48:27.959Z,12.81
2022-09-21T01:51:02.957Z,12.78
2022-09-21T01:53:38.563Z,12.77
2022-09-21T01:56:16.897Z,12.80
2022-09-21T01:58:56.060Z,12.80
2022-09-21T02:01:31.910Z,12.65
2022-09-21T02:04:10.369Z,12.57
2022-09-21T02:06:45.449Z,12.66
2022-09-21T02:09:18.219Z,12.67
2022-09-21T02:11:50.284Z,12.72
2022-09-21T02:14:26.239Z,12.63
2022-09-21T02:17:11.722Z,12.70
2022-09-21T02:19:51.488Z,12.70
2022-09-21T02:22:33.395Z,12.73
2022-09-21T02:25:12.176Z,12.77
2022-09-21T02:27:52.213Z,12.76
2022-09-21T02:30:26.042Z,12.72
2022-09-21T02:33:04.196Z,12.68
2022-09-21T02:35:43.497Z,12.68
2022-09-21T02:38:26.533Z,12.66
2022-09-21T02:41:06.643Z,12.69
2022-09-21T02:43:42.631Z,12.72
2022-09-21T02:46:20.568Z,12.62
2022-09-21T02:48:55.778Z,12.71
2022-09-21T02:51:31.111Z,12.75
2022-09-21T02:54:08.006Z,12.81
2022-09-21T02:56:40.676Z,12.80
2022-09-21T02:59:13.770Z,12.80
2022-09-21T03:01:47.060Z,12.85
2022-09-21T03:04:19.579Z,12.87
2022-09-21T03:06:52.169Z,12.89
2022-09-21T03:09:24.647Z,12.91
2022-09-21T03:11:56.730Z,12.92
2022-09-21T03:14:29.195Z,12.92
2022-09-21T03:17:01.636Z,12.91
2022-09-21T03:19:33.812Z,12.90
2022-09-21T03:22:06.063Z,12.90
2022-09-21T03:24:48.042Z,12.95
2022-09-21T03:27:23.079Z,12.97
2022-09-21T03:29:57.654Z,13.00
2022-09-21T03:32:32.154Z,13.03
2022-09-21T03:35:05.052Z,13.05
2022-09-21T03:37:41.187Z,13.06
2022-09-21T03:40:14.164Z,13.05
2022-09-21T03:42:46.761Z,13.10
2022-09-21T03:45:19.447Z,13.12
2022-09-21T03:47:51.768Z,12.87
2022-09-21T03:50:23.955Z,13.15
2022-09-21T03:52:55.949Z,13.14
2022-09-21T03:55:29.877Z,13.17
2022-09-21T03:58:02.235Z,13.15
2022-09-21T04:00:34.866Z,13.19
2022-09-21T04:03:06.993Z,13.15
2022-09-21T04:05:39.690Z,13.10
2022-09-21T04:08:12.080Z,13.09
2022-09-21T04:10:44.230Z,13.07
2022-09-21T04:13:16.989Z,13.07
2022-09-21T04:15:49.204Z,13.05
2022-09-21T04:18:21.172Z,13.04
2022-09-21T04:20:53.274Z,12.99
2022-09-21T04:23:25.303Z,12.97
2022-09-21T04:25:58.923Z,12.99
2022-09-21T04:28:32.865Z,12.94
2022-09-21T04:31:05.452Z,12.91
2022-09-21T04:33:38.498Z,12.91
2022-09-21T04:36:10.989Z,12.91
2022-09-21T04:38:43.147Z,12.91
2022-09-21T04:41:16.219Z,12.82
2022-09-21T04:43:49.749Z,12.83
2022-09-21T04:46:23.496Z,12.89
2022-09-21T04:48:55.813Z,12.69
2022-09-21T04:51:27.772Z,12.85
2022-09-21T04:54:01.090Z,12.70
2022-09-21T04:56:33.279Z,12.83
2022-09-21T04:59:06.480Z,12.83
2022-09-21T05:01:39.186Z,12.99
2022-09-21T05:04:11.941Z,13.00
2022-09-21T05:06:44.174Z,12.89
2022-09-21T05:09:33.921Z,12.94
2022-09-21T05:12:07.145Z,12.93
2022-09-21T05:14:39.161Z,12.90
2022-09-21T05:17:11.487Z,12.92
2022-09-21T05:19:43.863Z,12.93
2022-09-21T05:22:15.996Z,12.91
2022-09-21T05:24:48.107Z,12.84
2022-09-21T05:27:20.160Z,12.73
2022-09-21T05:29:54.145Z,12.76
2022-09-21T05:32:34.203Z,12.90
2022-09-21T05:35:14.535Z,12.88
2022-09-21T05:37:58.397Z,12.88
2022-09-21T05:40:31.766Z,12.88
2022-09-21T05:43:05.106Z,12.89
2022-09-21T05:45:38.848Z,12.89
2022-09-21T05:48:16.527Z,12.86
2022-09-21T05:50:57.028Z,12.79
2022-09-21T05:53:42.264Z,12.77
2022-09-21T05:56:25.732Z,12.76
2022-09-21T05:59:06.800Z,12.68
2022-09-21T06:01:50.612Z,12.82
2022-09-21T06:04:24.067Z,12.80
2022-09-21T06:06:56.326Z,12.71
2022-09-21T06:09:28.530Z,12.74
2022-09-21T06:12:00.774Z,12.81
2022-09-21T06:14:32.876Z,12.89
2022-09-21T06:17:06.144Z,12.92
2022-09-21T06:19:38.388Z,12.94
2022-09-21T06:22:10.552Z,13.03
2022-09-21T06:24:42.631Z,13.06
2022-09-21T06:27:14.819Z,13.10
2022-09-21T06:29:47.064Z,13.08
2022-09-21T06:32:20.833Z,13.09
2022-09-21T06:34:53.152Z,13.12
2022-09-21T06:37:25.275Z,13.15
2022-09-21T06:39:57.443Z,13.19
2022-09-21T06:42:29.997Z,13.23
2022-09-21T06:45:03.708Z,13.26
2022-09-21T06:47:36.041Z,13.31
2022-09-21T06:50:09.602Z,13.30
2022-09-21T06:52:42.131Z,13.38
2022-09-21T06:55:15.100Z,13.45
2022-09-21T06:57:47.349Z,13.46
2022-09-21T07:00:20.252Z,13.53
2022-09-21T07:02:52.326Z,13.55
2022-09-21T07:05:24.630Z,13.56
2022-09-21T07:08:01.218Z,13.63
2022-09-21T07:10:33.726Z,13.70
2022-09-21T07:13:09.786Z,13.76
2022-09-21T07:15:41.814Z,13.83
2022-09-21T07:18:17.333Z,13.87
2022-09-21T07:20:50.389Z,13.93
2022-09-21T07:23:23.288Z,14.00
2022-09-21T07:25:55.702Z,14.02
2022-09-21T07:28:27.916Z,14.06
2022-09-21T07:31:00.495Z,14.10
2022-09-21T07:33:36.133Z,14.17
2022-09-21T07:36:11.328Z,14.20
2022-09-21T07:38:45.301Z,14.28
2022-09-21T07:41:17.678Z,14.28
2022-09-21T07:43:49.746Z,14.34
2022-09-21T07:46:23.824Z,14.33
2022-09-21T07:48:58.726Z,14.38
2022-09-21T07:51:29.180Z,14.39
2022-09-21T07:54:01.159Z,14.42
2022-09-21T07:56:33.292Z,14.45
2022-09-21T07:59:08.389Z,14.48
2022-09-21T08:01:42.288Z,14.51
2022-09-21T08:04:14.511Z,14.59
2022-09-21T08:06:46.990Z,14.59
2022-09-21T08:09:19.250Z,14.68
2022-09-21T08:11:52.118Z,14.69
2022-09-21T08:14:26.562Z,14.82
2022-09-21T08:16:58.959Z,14.91
2022-09-21T08:19:32.033Z,14.98
2022-09-21T08:22:04.017Z,14.95
2022-09-21T08:24:37.742Z,15.09
2022-09-21T08:27:10.150Z,15.13
2022-09-21T08:29:42.647Z,15.16
2022-09-21T08:32:32.972Z,15.21
2022-09-21T08:35:08.015Z,15.28
2022-09-21T08:37:40.280Z,15.30
2022-09-21T08:40:16.969Z,15.39
2022-09-21T08:42:58.973Z,15.46
2022-09-21T08:45:36.369Z,15.50
2022-09-21T08:48:20.256Z,15.40
2022-09-21T08:50:57.583Z,15.51
2022-09-21T08:53:35.465Z,15.51
2022-09-21T08:56:09.938Z,15.62
2022-09-21T08:58:43.689Z,15.72
2022-09-21T09:01:32.823Z,15.79
2022-09-21T09:04:39.360Z,15.90
2022-09-21T09:07:27.396Z,16.01
2022-09-21T09:10:14.372Z,16.04
2022-09-21T09:12:58.087Z,16.09
2022-09-21T09:15:46.137Z,16.05
2022-09-21T09:18:26.619Z,16.10
2022-09-21T09:21:02.252Z,16.13
2022-09-21T09:23:39.175Z,16.19
2022-09-21T09:26:16.891Z,16.28
2022-09-21T09:28:54.648Z,16.33
2022-09-21T09:31:30.927Z,16.25
2022-09-21T09:34:11.037Z,16.22
2022-09-21T09:36:58.294Z,16.25
2022-09-21T09:39:32.908Z,16.22
2022-09-21T09:42:16.573Z,16.39
2022-09-21T09:45:09.900Z,16.39
2022-09-21T09:47:57.229Z,16.56
2022-09-21T09:50:32.355Z,16.71
2022-09-21T09:53:10.617Z,16.71
2022-09-21T09:55:46.368Z,16.66
2022-09-21T09:58:25.350Z,16.66
2022-09-21T10:00:59.064Z,16.65
2022-09-21T10:03:32.053Z,16.58
2022-09-21T10:06:04.980Z,16.58
2022-09-21T10:08:47.477Z,16.63
2022-09-21T10:11:20.338Z,16.70
2022-09-21T10:13:53.994Z,16.69
2022-09-21T10:16:26.850Z,16.67
2022-09-21T10:19:02.677Z,16.74
2022-09-21T10:21:38.896Z,16.70
2022-09-21T10:24:21.846Z,16.61
2022-09-21T10:26:56.516Z,16.60
2022-09-21T10:29:39.538Z,16.56
2022-09-21T10:32:26.458Z,16.45
2022-09-21T10:35:19.306Z,16.46
2022-09-21T10:38:10.183Z,16.49
2022-09-21T10:40:44.796Z,16.64
2022-09-21T10:43:31.820Z,16.72
2022-09-21T10:46:06.198Z,16.74
2022-09-21T10:48:38.788Z,16.62
2022-09-21T10:51:29.552Z,16.50
2022-09-21T10:54:01.715Z,16.54
2022-09-21T10:56:34.195Z,16.57
2022-09-21T10:59:25.134Z,16.57
2022-09-21T11:01:59.123Z,16.55
2022-09-21T11:04:47.109Z,16.61
2022-09-21T11:07:25.776Z,16.63
2022-09-21T11:10:05.060Z,16.61
2022-09-21T11:12:48.533Z,16.59
2022-09-21T11:15:33.866Z,16.71
2022-09-21T11:18:15.122Z,17.05
2022-09-21T11:20:50.888Z,17.01
2022-09-21T11:23:37.546Z,16.78
2022-09-21T11:26:19.437Z,17.05
2022-09-21T11:28:57.950Z,17.35
2022-09-21T11:31:45.177Z,17.40
2022-09-21T11:34:48.670Z,17.33
2022-09-21T11:37:35.975Z,17.25
2022-09-21T11:40:26.321Z,17.20
2022-09-21T11:43:13.557Z,17.30
2022-09-21T11:46:00.389Z,17.49
2022-09-21T11:48:48.824Z,17.51
2022-09-21T11:51:38.975Z,17.35
2022-09-21T11:54:36.551Z,17.42
2022-09-21T11:57:19.114Z,17.38
2022-09-21T12:00:07.083Z,17.33
2022-09-21T12:03:07.684Z,17.35
2022-09-21T12:05:46.094Z,17.77
2022-09-21T12:08:50.763Z,17.89
2022-09-21T12:11:33.307Z,17.88
2022-09-21T12:14:19.195Z,17.84
2022-09-21T12:17:00.423Z,17.68
2022-09-21T12:19:46.231Z,17.52
2022-09-21T12:22:23.740Z,17.38
2022-09-21T12:24:59.338Z,17.30
2022-09-21T12:27:37.842Z,17.16
2022-09-21T12:30:17.082Z,16.96
2022-09-21T12:32:56.693Z,16.77
2022-09-21T12:35:36.120Z,16.78
2022-09-21T12:38:16.568Z,16.72
2022-09-21T12:40:53.485Z,16.69
2022-09-21T12:43:40.467Z,16.71
2022-09-21T12:46:18.514Z,16.66
2022-09-21T12:48:51.036Z,16.67
2022-09-21T12:51:31.800Z,16.66
2022-09-21T12:54:14.534Z,16.71
2022-09-21T12:56:54.984Z,16.75
2022-09-21T12:59:38.611Z,16.79
2022-09-21T13:02:21.439Z,16.82
2022-09-21T13:05:04.061Z,16.84
2022-09-21T13:08:12.485Z,16.82
2022-09-21T13:10:54.693Z,16.83
2022-09-21T13:13:31.592Z,16.78
2022-09-21T13:16:05.655Z,16.84
2022-09-21T13:18:40.921Z,17.05
2022-09-21T13:21:22.205Z,16.96
2022-09-21T13:23:59.389Z,16.93
2022-09-21T13:26:40.516Z,17.11
2022-09-21T13:29:36.549Z,17.03
2022-09-21T13:32:25.318Z,17.25
2022-09-21T13:35:34.699Z,17.42
2022-09-21T13:38:31.040Z,17.53
2022-09-21T13:41:05.248Z,17.42
2022-09-21T13:44:05.116Z,17.37
2022-09-21T13:46:53.350Z,17.28
2022-09-21T13:49:34.830Z,17.22
2022-09-21T13:52:18.742Z,17.19
2022-09-21T13:54:53.534Z,17.22
2022-09-21T13:57:32.238Z,17.22
2022-09-21T14:00:33.369Z,17.29
2022-09-21T14:03:18.509Z,17.47
2022-09-21T14:05:51.057Z,17.47
2022-09-21T14:08:27.964Z,17.42
2022-09-21T14:11:03.096Z,17.46
2022-09-21T14:13:41.632Z,17.36
2022-09-21T14:17:04.733Z,17.44
2022-09-21T14:20:08.108Z,17.45
2022-09-21T14:22:49.604Z,17.64
2022-09-21T14:25:52.347Z,17.63
2022-09-21T14:28:35.758Z,17.81
2022-09-21T14:31:19.308Z,17.79
2022-09-21T14:33:55.374Z,17.72
2022-09-21T14:36:34.820Z,17.75
2022-09-21T14:39:09.202Z,17.72
2022-09-21T14:41:44.342Z,17.69
2022-09-21T14:44:23.434Z,17.66
2022-09-21T14:47:15.523Z,17.66
2022-09-21T14:50:05.642Z,17.60
2022-09-21T14:52:49.301Z,17.59
2022-09-21T14:55:26.190Z,17.59
2022-09-21T14:58:17.635Z,17.60
2022-09-21T15:00:51.421Z,17.61
2022-09-21T15:03:41.834Z,17.59
2022-09-21T15:06:40.783Z,17.57
2022-09-21T15:09:52.878Z,17.50
2022-09-21T15:12:30.168Z,17.24
2022-09-21T15:15:13.208Z,17.29
2022-09-21T15:17:59.659Z,17.09
2022-09-21T15:20:33.272Z,16.84
2022-09-21T15:23:20.667Z,16.71
2022-09-21T15:26:02.243Z,16.65
2022-09-21T15:29:05.053Z,16.70
2022-09-21T15:31:37.258Z,16.68
2022-09-21T15:34:12.021Z,16.71
2022-09-21T15:36:45.571Z,16.69
2022-09-21T15:39:29.108Z,16.67
2022-09-21T15:42:20.108Z,16.65
2022-09-21T15:45:06.143Z,16.63
2022-09-21T15:47:39.407Z,16.68
2022-09-21T15:50:17.458Z,16.70
2022-09-21T15:52:53.379Z,16.69
2022-09-21T15:55:26.098Z,16.59
2022-09-21T15:57:59.530Z,16.57
2022-09-21T16:00:35.368Z,16.55
2022-09-21T16:03:19.132Z,16.57
2022-09-21T16:05:54.557Z,16.48
2022-09-21T16:08:35.247Z,16.43
2022-09-21T16:11:20.085Z,16.32
2022-09-21T16:14:19.362Z,16.27
2022-09-21T16:17:21.239Z,16.33
2022-09-21T16:20:23.548Z,16.24
2022-09-21T16:23:06.678Z,16.19
2022-09-21T16:25:39.280Z,16.02
2022-09-21T16:28:38.354Z,16.14
2022-09-21T16:31:32.885Z,16.12
2022-09-21T16:34:20.063Z,15.99
2022-09-21T16:36:54.155Z,16.03
2022-09-21T16:39:27.456Z,15.97
2022-09-21T16:42:04.027Z,15.94
2022-09-21T16:44:44.909Z,15.91
2022-09-21T16:47:25.668Z,15.82
2022-09-21T16:50:01.856Z,15.64
2022-09-21T16:52:34.172Z,15.72
2022-09-21T16:55:07.683Z,15.70
2022-09-21T16:57:42.682Z,15.70
2022-09-21T17:00:14.780Z,15.60
2022-09-21T17:02:46.828Z,15.53
2022-09-21T17:05:19.483Z,15.49
2022-09-21T17:07:59.317Z,15.47
2022-09-21T17:10:37.224Z,15.44
2022-09-21T17:13:10.248Z,15.40
2022-09-21T17:15:48.633Z,15.35
2022-09-21T17:18:20.775Z,15.28
2022-09-21T17:20:53.168Z,15.29
2022-09-21T17:23:29.264Z,15.25
2022-09-21T17:26:01.850Z,15.20
2022-09-21T17:28:34.567Z,15.18
2022-09-21T17:31:09.463Z,15.20
2022-09-21T17:33:42.368Z,15.16
2022-09-21T17:36:16.461Z,15.09
2022-09-21T17:38:51.365Z,15.03
2022-09-21T17:41:32.524Z,14.99
2022-09-21T17:44:12.298Z,14.96
2022-09-21T17:46:53.950Z,14.96
2022-09-21T17:49:27.042Z,14.94
2022-09-21T17:52:17.698Z,14.94
2022-09-21T17:54:53.006Z,14.93
2022-09-21T17:57:36.391Z,14.89
2022-09-21T18:00:19.964Z,14.86
2022-09-21T18:02:53.996Z,14.80
2022-09-21T18:05:28.333Z,14.76
2022-09-21T18:08:01.845Z,14.73
2022-09-21T18:10:34.943Z,14.69
2022-09-21T18:13:23.205Z,14.69
2022-09-21T18:16:06.405Z,14.52
2022-09-21T18:18:45.875Z,14.62
2022-09-21T18:21:21.614Z,14.58
2022-09-21T18:24:19.634Z,14.58
2022-09-21T18:26:53.300Z,14.56
2022-09-21T18:29:40.801Z,14.54
2022-09-21T18:32:30.374Z,14.51
2022-09-21T18:35:34.940Z,14.36
2022-09-21T18:38:22.173Z,14.42
2022-09-21T18:41:13.396Z,14.40
2022-09-21T18:44:05.149Z,14.37
2022-09-21T18:46:48.857Z,14.25
2022-09-21T18:49:44.416Z,14.33
2022-09-21T18:52:26.433Z,14.34
2022-09-21T18:54:59.698Z,14.34
2022-09-21T18:57:33.032Z,14.34
2022-09-21T19:00:07.274Z,14.34
2022-09-21T19:02:53.530Z,14.32
2022-09-21T19:05:38.625Z,14.28
2022-09-21T19:08:20.975Z,14.30
2022-09-21T19:11:03.169Z,14.30
2022-09-21T19:13:51.147Z,14.29
2022-09-21T19:16:32.874Z,14.31
2022-09-21T19:19:18.259Z,14.29
2022-09-21T19:21:57.494Z,14.26
2022-09-21T19:24:39.282Z,14.31
2022-09-21T19:27:19.936Z,14.33
2022-09-21T19:30:04.427Z,14.34
2022-09-21T19:32:45.876Z,14.35
2022-09-21T19:35:22.990Z,14.28
2022-09-21T19:37:57.421Z,14.33
2022-09-21T19:40:33.020Z,14.34
2022-09-21T19:43:28.458Z,14.34
2022-09-21T19:46:20.103Z,14.35
2022-09-21T19:48:59.652Z,14.41
2022-09-21T19:51:38.833Z,14.41
2022-09-21T19:54:33.755Z,14.41
2022-09-21T19:57:31.148Z,14.42
2022-09-21T20:00:05.555Z,14.39
2022-09-21T20:02:43.070Z,14.42
2022-09-21T20:05:23.573Z,14.42
2022-09-21T20:08:04.409Z,14.35
2022-09-21T20:10:57.208Z,14.39
2022-09-21T20:13:43.194Z,14.39
2022-09-21T20:16:37.522Z,14.38
2022-09-21T20:19:20.941Z,14.36
2022-09-21T20:21:58.843Z,14.34
2022-09-21T20:24:40.011Z,14.34
2022-09-21T20:27:26.546Z,14.29
2022-09-21T20:30:01.404Z,14.30
2022-09-21T20:32:32.260Z,14.28
2022-09-21T20:35:04.702Z,14.29
2022-09-21T20:37:38.034Z,14.28
2022-09-21T20:40:13.501Z,14.17
2022-09-21T20:42:45.960Z,14.24
2022-09-21T20:45:19.477Z,14.12
2022-09-21T20:47:53.876Z,14.17
2022-09-21T20:50:26.804Z,14.15
2022-09-21T20:53:00.413Z,14.15
2022-09-21T20:55:37.518Z,14.13
2022-09-21T20:58:11.983Z,14.13
2022-09-21T21:00:46.652Z,14.05
2022-09-21T21:03:17.340Z,14.12
2022-09-21T21:05:49.900Z,14.09
2022-09-21T21:08:21.908Z,14.07
2022-09-21T21:10:56.674Z,14.07
2022-09-21T21:13:29.533Z,14.07
2022-09-21T21:16:08.184Z,14.06
2022-09-21T21:18:44.104Z,14.04
2022-09-21T21:21:16.838Z,14.00
2022-09-21T21:24:10.404Z,14.00
2022-09-21T21:27:01.133Z,13.95
2022-09-21T21:29:34.537Z,13.90
2022-09-21T21:32:07.407Z,13.90
2022-09-21T21:34:39.867Z,13.86
2022-09-21T21:37:13.109Z,13.75
2022-09-21T21:39:46.119Z,13.70
2022-09-21T21:42:18.618Z,13.76
2022-09-21T21:44:51.627Z,13.74
2022-09-21T21:47:40.490Z,13.70
2022-09-21T21:50:14.680Z,13.67
2022-09-21T21:52:46.678Z,13.65
2022-09-21T21:55:18.591Z,13.61
2022-09-21T21:57:51.600Z,13.56
2022-09-21T22:00:23.836Z,13.54
2022-09-21T22:02:58.195Z,13.53
2022-09-21T22:05:30.347Z,13.50
2022-09-21T22:08:02.664Z,13.45
2022-09-21T22:10:35.107Z,13.36
2022-09-21T22:13:08.430Z,13.34
2022-09-21T22:15:41.108Z,13.33
2022-09-21T22:18:13.443Z,13.30
2022-09-21T22:20:46.144Z,13.27
2022-09-21T22:23:18.241Z,13.23
2022-09-21T22:25:50.467Z,13.20
2022-09-21T22:28:22.419Z,13.16
2022-09-21T22:30:54.616Z,13.10
2022-09-21T22:33:31.123Z,13.07
2022-09-21T22:36:07.320Z,13.01
2022-09-21T22:38:42.712Z,12.96
2022-09-21T22:41:18.377Z,12.89
2022-09-21T22:43:51.949Z,12.87
2022-09-21T22:46:24.952Z,12.82
2022-09-21T22:48:56.945Z,12.79
2022-09-21T22:51:30.114Z,12.67
2022-09-21T22:54:02.368Z,12.69
2022-09-21T22:56:35.559Z,12.54
2022-09-21T22:59:08.565Z,12.60
2022-09-21T23:01:41.451Z,12.55
2022-09-21T23:04:15.405Z,12.50
2022-09-21T23:06:49.604Z,12.46
2022-09-21T23:09:22.734Z,12.41
2022-09-21T23:11:55.097Z,12.38
2022-09-21T23:14:27.269Z,12.35
2022-09-21T23:16:59.665Z,12.33
2022-09-21T23:19:32.232Z,12.28
2022-09-21T23:22:04.595Z,12.26
2022-09-21T23:24:36.888Z,12.10
2022-09-21T23:27:09.220Z,12.20
2022-09-21T23:29:41.537Z,12.13
2022-09-21T23:32:13.583Z,12.14
2022-09-21T23:34:46.026Z,12.12
2022-09-21T23:37:18.318Z,12.06
2022-09-21T23:39:50.940Z,12.03
2022-09-21T23:42:23.344Z,12.02
2022-09-21T23:44:55.737Z,12.00
2022-09-21T23:47:27.823Z,11.97
2022-09-21T23:50:00.038Z,11.92
2022-09-21T23:52:32.671Z,11.91
2022-09-21T23:55:05.203Z,11.87
2022-09-21T23:57:37.220Z,11.86
